createdAt,value
2023-05-14T00:00:38.851Z,30.41
2023-05-14T00:03:07.276Z,31.03
2023-05-14T00:05:35.845Z,30.95
2023-05-14T00:08:04.053Z,31.26
2023-05-14T00:10:32.241Z,31.42
2023-05-14T00:13:00.449Z,31.79
2023-05-14T00:15:28.682Z,32.06
2023-05-14T00:17:56.943Z,32.07
2023-05-14T00:20:25.478Z,31.37
2023-05-14T00:22:53.850Z,31.85
2023-05-14T00:25:22.041Z,32.10
2023-05-14T00:27:50.685Z,32.53
2023-05-14T00:30:18.890Z,32.54
2023-05-14T00:32:47.074Z,32.36
2023-05-14T00:35:15.322Z,32.40
2023-05-14T00:37:43.801Z,31.92
2023-05-14T00:40:13.785Z,32.08
2023-05-14T00:42:42.260Z,32.38
2023-05-14T00:45:11.041Z,32.16
2023-05-14T00:47:40.243Z,32.40
2023-05-14T00:50:09.621Z,32.76
2023-05-14T00:52:39.261Z,32.63
2023-05-14T00:55:08.343Z,31.62
2023-05-14T00:57:38.259Z,32.19
2023-05-14T01:00:07.352Z,32.61
2023-05-14T01:02:35.689Z,32.89
2023-05-14T01:05:04.586Z,33.12
2023-05-14T01:08:19.400Z,32.88
2023-05-14T01:10:57.374Z,33.48
2023-05-14T01:13:32.376Z,33.87
2023-05-14T01:16:01.955Z,34.07
2023-05-14T01:18:32.627Z,33.75
2023-05-14T01:21:00.916Z,34.37
2023-05-14T01:23:29.164Z,34.60
2023-05-14T01:25:57.400Z,34.63
2023-05-14T01:28:33.942Z,34.51
2023-05-14T01:31:12.714Z,34.19
2023-05-14T01:33:43.503Z,33.96
2023-05-14T01:36:12.385Z,34.01
2023-05-14T01:38:42.560Z,34.01
2023-05-14T01:41:10.931Z,34.38
2023-05-14T01:43:40.247Z,33.64
2023-05-14T01:46:08.528Z,33.60
2023-05-14T01:48:38.536Z,33.82
2023-05-14T01:51:06.766Z,34.37
2023-05-14T01:53:35.762Z,34.04
2023-05-14T01:56:04.122Z,34.28
2023-05-14T01:58:32.303Z,34.24
2023-05-14T02:01:00.495Z,33.95
2023-05-14T02:03:28.770Z,33.73
2023-05-14T02:05:57.035Z,33.54
2023-05-14T02:08:25.359Z,33.55
2023-05-14T02:10:53.611Z,33.83
2023-05-14T02:13:22.057Z,34.20
2023-05-14T02:15:51.307Z,33.83
2023-05-14T02:18:19.739Z,34.13
2023-05-14T02:20:48.572Z,34.17
2023-05-14T02:23:16.828Z,34.28
2023-05-14T02:25:46.178Z,34.46
2023-05-14T02:28:14.490Z,34.43
2023-05-14T02:30:42.732Z,34.68
2023-05-14T02:33:11.041Z,34.90
2023-05-14T02:35:39.330Z,34.87
2023-05-14T02:38:07.551Z,35.00
2023-05-14T02:40:37.708Z,35.20
2023-05-14T02:43:06.119Z,35.38
2023-05-14T02:45:34.358Z,35.42
2023-05-14T02:48:02.722Z,35.54
2023-05-14T02:50:31.052Z,35.39
2023-05-14T02:52:59.287Z,35.26
2023-05-14T02:55:27.506Z,35.01
2023-05-14T02:57:55.785Z,34.88
2023-05-14T03:00:24.411Z,35.06
2023-05-14T03:02:53.358Z,35.22
2023-05-14T03:05:22.059Z,35.00
2023-05-14T03:07:52.590Z,34.98
2023-05-14T03:10:21.596Z,34.67
2023-05-14T03:12:50.294Z,34.84
2023-05-14T03:15:18.631Z,34.92
2023-05-14T03:17:46.878Z,34.96
2023-05-14T03:20:15.092Z,35.18
2023-05-14T03:22:43.413Z,35.16
2023-05-14T03:25:11.687Z,35.44
2023-05-14T03:27:39.919Z,35.36
2023-05-14T03:30:08.816Z,35.51
2023-05-14T03:32:38.329Z,35.66
2023-05-14T03:35:07.153Z,35.75
2023-05-14T03:37:35.334Z,35.58
2023-05-14T03:40:04.002Z,35.96
2023-05-14T03:42:32.210Z,35.83
2023-05-14T03:45:00.445Z,35.84
2023-05-14T03:47:28.791Z,35.98
2023-05-14T03:49:57.929Z,35.84
2023-05-14T03:52:26.149Z,35.82
2023-05-14T03:54:54.378Z,36.12
2023-05-14T03:57:22.688Z,35.91
2023-05-14T03:59:51.015Z,35.84
2023-05-14T04:02:19.225Z,36.12
2023-05-14T04:04:47.481Z,35.95
2023-05-14T04:07:15.746Z,36.05
2023-05-14T04:09:43.922Z,36.51
2023-05-14T04:12:12.148Z,36.47
2023-05-14T04:14:40.373Z,36.46
2023-05-14T04:17:08.612Z,36.86
2023-05-14T04:19:36.773Z,36.61
2023-05-14T04:22:05.166Z,36.77
2023-05-14T04:24:33.410Z,37.20
2023-05-14T04:27:01.583Z,37.25
2023-05-14T04:29:29.765Z,37.64
2023-05-14T04:31:57.991Z,37.93
2023-05-14T04:34:26.901Z,37.84
2023-05-14T04:36:55.101Z,38.21
2023-05-14T04:39:23.311Z,38.29
2023-05-14T04:41:52.000Z,38.60
2023-05-14T04:44:20.180Z,39.07
2023-05-14T04:46:48.852Z,38.85
2023-05-14T04:49:17.049Z,38.92
2023-05-14T04:51:45.250Z,39.27
2023-05-14T04:54:13.538Z,39.49
2023-05-14T04:56:41.943Z,39.45
2023-05-14T04:59:10.292Z,39.72
2023-05-14T05:01:38.657Z,40.25
2023-05-14T05:04:07.019Z,40.37
2023-05-14T05:06:35.234Z,40.72
2023-05-14T05:09:03.489Z,40.81
2023-05-14T05:11:31.680Z,41.06
2023-05-14T05:13:59.882Z,41.17
2023-05-14T05:16:28.257Z,41.39
2023-05-14T05:18:56.658Z,41.62
2023-05-14T05:21:25.011Z,41.70
2023-05-14T05:23:53.208Z,41.70
2023-05-14T05:26:22.920Z,42.06
2023-05-14T05:28:51.548Z,41.96
2023-05-14T05:31:20.175Z,42.19
2023-05-14T05:33:49.361Z,42.12
2023-05-14T05:36:17.580Z,42.49
2023-05-14T05:38:45.766Z,42.61
2023-05-14T05:41:14.343Z,42.85
2023-05-14T05:43:42.518Z,43.11
2023-05-14T05:46:10.769Z,43.22
2023-05-14T05:48:39.082Z,43.44
2023-05-14T05:51:07.463Z,43.56
2023-05-14T05:53:35.668Z,43.99
2023-05-14T05:56:04.325Z,43.97
2023-05-14T05:58:32.582Z,44.13
2023-05-14T06:01:01.136Z,44.29
2023-05-14T06:03:29.334Z,44.48
2023-05-14T06:05:57.511Z,44.56
2023-05-14T06:08:25.702Z,44.45
2023-05-14T06:10:53.986Z,44.53
2023-05-14T06:13:22.217Z,44.83
2023-05-14T06:15:50.740Z,45.15
2023-05-14T06:18:18.948Z,45.10
2023-05-14T06:20:47.167Z,45.25
2023-05-14T06:23:15.356Z,45.56
2023-05-14T06:25:43.640Z,45.72
2023-05-14T06:28:12.065Z,45.92
2023-05-14T06:30:40.422Z,45.91
2023-05-14T06:33:08.692Z,45.96
2023-05-14T06:35:37.888Z,46.32
2023-05-14T06:38:06.097Z,46.26
2023-05-14T06:40:34.279Z,46.44
2023-05-14T06:43:02.434Z,46.44
2023-05-14T06:45:33.214Z,46.52
2023-05-14T06:48:01.844Z,46.91
2023-05-14T06:50:30.134Z,47.09
2023-05-14T06:52:58.422Z,47.11
2023-05-14T06:55:26.658Z,47.26
2023-05-14T06:57:54.837Z,47.39
2023-05-14T07:00:23.758Z,47.35
2023-05-14T07:02:52.129Z,47.40
2023-05-14T07:05:20.405Z,47.71
2023-05-14T07:07:48.814Z,47.76
2023-05-14T07:10:17.033Z,47.90
2023-05-14T07:12:45.265Z,48.12
2023-05-14T07:15:13.514Z,48.00
2023-05-14T07:17:42.699Z,48.28
2023-05-14T07:20:11.340Z,48.30
2023-05-14T07:22:39.577Z,48.51
2023-05-14T07:25:08.638Z,48.72
2023-05-14T07:27:36.871Z,48.89
2023-05-14T07:30:05.266Z,48.84
2023-05-14T07:32:33.505Z,49.10
2023-05-14T07:35:02.742Z,49.06
2023-05-14T07:37:30.932Z,49.10
2023-05-14T07:39:59.221Z,49.42
2023-05-14T07:42:35.990Z,49.70
2023-05-14T07:45:06.828Z,49.66
2023-05-14T07:47:35.178Z,49.84
2023-05-14T07:50:03.529Z,49.83
2023-05-14T07:52:31.775Z,50.18
2023-05-14T07:55:00.797Z,50.39
2023-05-14T07:57:29.007Z,50.37
2023-05-14T07:59:58.536Z,50.69
2023-05-14T08:02:26.968Z,50.80
2023-05-14T08:04:55.378Z,50.99
2023-05-14T08:07:23.759Z,51.15
2023-05-14T08:09:51.998Z,51.27
2023-05-14T08:12:20.382Z,51.42
2023-05-14T08:14:48.737Z,51.47
2023-05-14T08:17:17.439Z,51.67
2023-05-14T08:19:45.838Z,51.76
2023-05-14T08:22:14.099Z,51.81
2023-05-14T08:24:43.889Z,51.78
2023-05-14T08:27:12.141Z,52.07
2023-05-14T08:29:40.446Z,52.28
2023-05-14T08:32:21.976Z,52.17
2023-05-14T08:34:51.629Z,52.48
2023-05-14T08:37:20.371Z,52.44
2023-05-14T08:39:48.553Z,52.54
2023-05-14T08:42:20.821Z,52.80
2023-05-14T08:45:01.484Z,52.89
2023-05-14T08:47:31.524Z,53.02
2023-05-14T08:50:08.229Z,53.00
2023-05-14T08:52:36.853Z,53.25
2023-05-14T08:55:07.210Z,53.25
2023-05-14T08:57:36.267Z,53.40
2023-05-14T09:00:16.482Z,53.69
2023-05-14T09:02:46.991Z,53.64
2023-05-14T09:05:18.348Z,53.65
2023-05-14T09:07:46.670Z,53.72
2023-05-14T09:10:16.266Z,54.11
2023-05-14T09:12:44.508Z,53.96
2023-05-14T09:15:12.816Z,54.15
2023-05-14T09:17:41.234Z,54.37
2023-05-14T09:20:10.982Z,54.45
2023-05-14T09:22:40.332Z,54.57
2023-05-14T09:25:12.731Z,54.69
2023-05-14T09:27:40.918Z,54.82
2023-05-14T09:30:13.642Z,55.23
2023-05-14T09:32:47.030Z,55.13
2023-05-14T09:35:21.433Z,55.27
2023-05-14T09:37:52.062Z,55.42
2023-05-14T09:40:23.386Z,55.38
2023-05-14T09:42:52.246Z,55.53
2023-05-14T09:45:20.543Z,55.94
2023-05-14T09:47:48.889Z,56.13
2023-05-14T09:50:17.228Z,56.38
2023-05-14T09:52:45.423Z,56.36
2023-05-14T09:55:13.650Z,56.58
2023-05-14T09:57:41.961Z,56.72
2023-05-14T10:00:11.100Z,56.86
2023-05-14T10:02:41.635Z,57.31
2023-05-14T10:05:10.426Z,57.33
2023-05-14T10:07:43.636Z,57.50
2023-05-14T10:10:17.395Z,57.74
2023-05-14T10:12:52.916Z,57.85
2023-05-14T10:15:31.277Z,57.95
2023-05-14T10:18:04.745Z,58.19
2023-05-14T10:20:33.464Z,58.39
2023-05-14T10:23:02.278Z,58.46
2023-05-14T10:25:31.091Z,58.61
2023-05-14T10:27:59.644Z,58.78
2023-05-14T10:30:28.103Z,58.96
2023-05-14T10:33:17.451Z,59.27
2023-05-14T10:36:08.008Z,59.42
2023-05-14T10:38:38.359Z,59.48
2023-05-14T10:41:08.911Z,59.53
2023-05-14T10:43:41.962Z,60.05
2023-05-14T10:46:12.334Z,59.87
2023-05-14T10:48:43.067Z,60.04
2023-05-14T10:51:13.209Z,60.33
2023-05-14T10:53:43.992Z,60.41
2023-05-14T10:56:14.187Z,60.54
2023-05-14T10:58:45.316Z,60.72
2023-05-14T11:01:14.988Z,60.91
2023-05-14T11:03:45.759Z,60.87
2023-05-14T11:06:16.126Z,60.98
2023-05-14T11:08:45.348Z,60.98
2023-05-14T11:11:13.552Z,61.18
2023-05-14T11:13:43.754Z,61.07
2023-05-14T11:16:22.526Z,61.32
2023-05-14T11:19:02.657Z,61.48
2023-05-14T11:21:33.390Z,61.63
2023-05-14T11:24:02.680Z,61.93
2023-05-14T11:26:32.562Z,61.88
2023-05-14T11:29:01.010Z,62.13
2023-05-14T11:31:29.418Z,62.30
2023-05-14T11:33:57.941Z,62.38
2023-05-14T11:36:26.096Z,62.36
2023-05-14T11:38:54.282Z,62.67
2023-05-14T11:41:23.729Z,62.65
2023-05-14T11:43:52.047Z,62.98
2023-05-14T11:46:20.540Z,62.86
2023-05-14T11:48:49.596Z,63.11
2023-05-14T11:51:17.881Z,63.23
2023-05-14T11:53:47.662Z,63.36
2023-05-14T11:56:16.119Z,63.33
2023-05-14T11:58:58.100Z,63.60
2023-05-14T12:01:26.298Z,63.72
2023-05-14T12:03:54.605Z,63.50
2023-05-14T12:06:22.886Z,63.64
2023-05-14T12:08:51.078Z,63.71
2023-05-14T12:11:22.736Z,63.90
2023-05-14T12:13:51.091Z,64.02
2023-05-14T12:16:22.473Z,64.22
2023-05-14T12:18:53.785Z,64.39
2023-05-14T12:21:21.993Z,64.58
2023-05-14T12:24:00.577Z,64.64
2023-05-14T12:26:29.599Z,64.71
2023-05-14T12:29:04.918Z,64.93
2023-05-14T12:31:34.600Z,64.98
2023-05-14T12:34:03.414Z,65.10
2023-05-14T12:36:33.474Z,65.05
2023-05-14T12:39:04.601Z,65.13
2023-05-14T12:41:33.673Z,65.17
2023-05-14T12:44:03.538Z,65.76
2023-05-14T12:46:32.161Z,65.66
2023-05-14T12:49:00.382Z,65.70
2023-05-14T12:51:28.563Z,65.60
2023-05-14T12:53:56.865Z,65.69
2023-05-14T12:56:29.034Z,65.71
2023-05-14T12:58:57.553Z,65.96
2023-05-14T13:01:26.198Z,66.08
2023-05-14T13:03:54.510Z,66.10
2023-05-14T13:06:22.676Z,66.23
2023-05-14T13:08:51.174Z,66.38
2023-05-14T13:11:19.354Z,66.22
2023-05-14T13:13:47.563Z,66.22
2023-05-14T13:16:17.607Z,66.43
2023-05-14T13:18:45.895Z,66.36
2023-05-14T13:21:14.098Z,66.39
2023-05-14T13:23:42.280Z,66.33
2023-05-14T13:26:10.677Z,66.15
2023-05-14T13:28:38.855Z,66.24
2023-05-14T13:31:14.078Z,66.44
2023-05-14T13:33:44.382Z,66.33
2023-05-14T13:36:14.453Z,66.65
2023-05-14T13:38:42.721Z,66.84
2023-05-14T13:41:10.903Z,66.81
2023-05-14T13:43:39.127Z,66.77
2023-05-14T13:46:08.378Z,66.72
2023-05-14T13:48:38.024Z,66.81
2023-05-14T13:51:06.292Z,66.80
2023-05-14T13:53:34.485Z,66.90
2023-05-14T13:56:02.687Z,66.78
2023-05-14T13:58:31.220Z,66.75
2023-05-14T14:00:59.444Z,66.78
2023-05-14T14:03:27.769Z,66.89
2023-05-14T14:05:55.983Z,66.80
2023-05-14T14:08:24.755Z,66.87
2023-05-14T14:10:55.593Z,66.69
2023-05-14T14:13:24.109Z,66.63
2023-05-14T14:15:52.363Z,66.75
2023-05-14T14:18:20.603Z,66.68
2023-05-14T14:20:49.050Z,66.78
2023-05-14T14:23:17.287Z,66.62
2023-05-14T14:25:45.543Z,66.63
2023-05-14T14:28:14.123Z,66.63
2023-05-14T14:30:42.613Z,66.36
2023-05-14T14:33:10.892Z,66.32
2023-05-14T14:35:39.392Z,66.11
2023-05-14T14:38:07.655Z,65.66
2023-05-14T14:40:36.168Z,65.27
2023-05-14T14:43:04.360Z,64.73
2023-05-14T14:45:32.743Z,64.32
2023-05-14T14:48:32.160Z,64.25
2023-05-14T14:51:01.892Z,64.14
2023-05-14T14:53:30.528Z,63.66
2023-05-14T14:55:59.530Z,63.27
2023-05-14T14:58:27.961Z,62.98
2023-05-14T15:00:58.047Z,62.92
2023-05-14T15:03:27.156Z,62.86
2023-05-14T15:05:55.473Z,62.83
2023-05-14T15:08:28.715Z,62.72
2023-05-14T15:11:00.306Z,62.48
2023-05-14T15:13:29.158Z,62.41
2023-05-14T15:15:57.378Z,62.35
2023-05-14T15:18:26.684Z,61.96
2023-05-14T15:20:55.008Z,61.89
2023-05-14T15:23:23.244Z,61.98
2023-05-14T15:25:51.753Z,61.33
2023-05-14T15:28:20.026Z,61.30
2023-05-14T15:30:49.548Z,61.14
2023-05-14T15:33:19.952Z,61.01
2023-05-14T15:35:48.250Z,60.98
2023-05-14T15:38:16.688Z,60.31
2023-05-14T15:40:44.962Z,60.47
2023-05-14T15:43:13.307Z,59.91
2023-05-14T15:45:41.640Z,59.63
2023-05-14T15:48:09.867Z,59.81
2023-05-14T15:50:39.294Z,59.71
2023-05-14T15:53:07.453Z,59.51
2023-05-14T15:55:35.801Z,59.35
2023-05-14T15:58:04.036Z,59.27
2023-05-14T16:00:32.292Z,59.04
2023-05-14T16:03:00.612Z,58.96
2023-05-14T16:05:29.033Z,58.57
2023-05-14T16:07:57.260Z,58.39
2023-05-14T16:10:25.860Z,57.92
2023-05-14T16:12:54.454Z,57.42
2023-05-14T16:15:22.733Z,57.27
2023-05-14T16:17:51.330Z,57.23
2023-05-14T16:20:19.592Z,56.81
2023-05-14T16:22:47.879Z,56.97
2023-05-14T16:25:16.540Z,56.28
2023-05-14T16:27:44.762Z,56.40
2023-05-14T16:30:13.157Z,56.05
2023-05-14T16:32:42.806Z,55.97
2023-05-14T16:35:11.674Z,55.59
2023-05-14T16:37:39.836Z,55.38
2023-05-14T16:40:12.095Z,55.40
2023-05-14T16:42:40.745Z,55.18
2023-05-14T16:45:10.183Z,54.99
2023-05-14T16:47:38.416Z,54.82
2023-05-14T16:50:07.380Z,54.44
2023-05-14T16:52:35.757Z,54.11
2023-05-14T16:55:03.984Z,54.11
2023-05-14T16:57:32.189Z,53.71
2023-05-14T17:00:00.404Z,53.29
2023-05-14T17:02:28.667Z,53.60
2023-05-14T17:04:57.110Z,53.63
2023-05-14T17:07:25.407Z,53.66
2023-05-14T17:09:53.628Z,53.26
2023-05-14T17:12:21.907Z,52.96
2023-05-14T17:14:50.403Z,52.46
2023-05-14T17:17:18.645Z,52.28
2023-05-14T17:19:47.167Z,52.07
2023-05-14T17:22:15.584Z,52.03
2023-05-14T17:24:44.030Z,51.63
2023-05-14T17:27:12.584Z,51.04
2023-05-14T17:29:41.846Z,50.80
2023-05-14T17:32:10.164Z,51.18
2023-05-14T17:34:38.456Z,50.85
2023-05-14T17:37:06.688Z,50.80
2023-05-14T17:39:34.958Z,50.06
2023-05-14T17:42:04.443Z,49.62
2023-05-14T17:44:32.642Z,48.93
2023-05-14T17:47:01.240Z,48.66
2023-05-14T17:49:29.605Z,48.24
2023-05-14T17:51:57.802Z,48.04
2023-05-14T17:54:26.150Z,47.92
2023-05-14T17:56:55.110Z,47.77
2023-05-14T17:59:24.294Z,47.72
2023-05-14T18:01:52.854Z,47.49
2023-05-14T18:04:21.103Z,47.26
2023-05-14T18:06:49.983Z,46.86
2023-05-14T18:09:18.160Z,46.96
2023-05-14T18:11:46.605Z,47.06
2023-05-14T18:14:14.958Z,46.77
2023-05-14T18:16:43.195Z,46.69
2023-05-14T18:19:12.117Z,46.37
2023-05-14T18:21:40.304Z,46.22
2023-05-14T18:24:09.183Z,46.04
2023-05-14T18:26:37.450Z,45.57
2023-05-14T18:29:05.674Z,46.07
2023-05-14T18:31:33.943Z,45.54
2023-05-14T18:34:02.534Z,45.41
2023-05-14T18:36:30.763Z,45.24
2023-05-14T18:38:59.053Z,45.02
2023-05-14T18:41:27.273Z,44.57
2023-05-14T18:43:55.460Z,43.68
2023-05-14T18:46:23.729Z,43.96
2023-05-14T18:48:52.407Z,44.12
2023-05-14T18:51:20.876Z,43.68
2023-05-14T18:53:49.469Z,43.52
2023-05-14T18:56:17.767Z,43.49
2023-05-14T18:58:45.920Z,42.92
2023-05-14T19:01:14.125Z,42.47
2023-05-14T19:03:43.043Z,42.72
2023-05-14T19:06:11.358Z,42.59
2023-05-14T19:08:39.552Z,41.66
2023-05-14T19:11:07.790Z,42.03
2023-05-14T19:13:36.047Z,41.82
2023-05-14T19:16:04.390Z,41.86
2023-05-14T19:18:32.677Z,41.72
2023-05-14T19:21:00.947Z,41.79
2023-05-14T19:23:31.802Z,41.46
2023-05-14T19:26:00.163Z,41.06
2023-05-14T19:28:28.481Z,40.94
2023-05-14T19:30:58.056Z,40.96
2023-05-14T19:33:26.983Z,40.57
2023-05-14T19:35:55.264Z,40.33
2023-05-14T19:38:23.590Z,39.83
2023-05-14T19:40:53.945Z,39.83
2023-05-14T19:43:22.257Z,40.04
2023-05-14T19:45:51.425Z,39.43
2023-05-14T19:48:22.272Z,39.13
2023-05-14T19:50:50.526Z,39.02
2023-05-14T19:53:18.765Z,38.79
2023-05-14T19:55:47.014Z,38.71
2023-05-14T19:58:15.341Z,38.69
2023-05-14T20:00:43.626Z,37.89
2023-05-14T20:03:11.971Z,37.59
2023-05-14T20:05:40.346Z,37.43
2023-05-14T20:08:09.001Z,37.67
2023-05-14T20:10:37.277Z,37.44
2023-05-14T20:13:06.252Z,37.09
2023-05-14T20:15:34.679Z,37.29
2023-05-14T20:18:02.962Z,37.10
2023-05-14T20:20:33.481Z,36.61
2023-05-14T20:23:02.164Z,36.27
2023-05-14T20:25:30.670Z,35.87
2023-05-14T20:28:01.027Z,36.22
2023-05-14T20:30:29.573Z,36.09
2023-05-14T20:32:57.957Z,35.53
2023-05-14T20:35:26.940Z,35.34
2023-05-14T20:37:55.491Z,35.39
2023-05-14T20:40:23.737Z,35.00
2023-05-14T20:42:52.152Z,34.96
2023-05-14T20:45:20.731Z,34.86
2023-05-14T20:47:49.384Z,34.65
2023-05-14T20:50:17.798Z,34.69
2023-05-14T20:52:46.136Z,34.09
2023-05-14T20:55:14.550Z,34.17
2023-05-14T20:57:43.556Z,33.74
2023-05-14T21:00:12.810Z,33.45
2023-05-14T21:02:41.446Z,33.15
2023-05-14T21:05:10.129Z,32.83
2023-05-14T21:07:38.411Z,33.14
2023-05-14T21:10:07.407Z,32.91
2023-05-14T21:12:35.569Z,33.02
2023-05-14T21:15:03.779Z,32.85
2023-05-14T21:17:32.082Z,32.46
2023-05-14T21:20:00.360Z,32.42
2023-05-14T21:22:28.669Z,32.67
2023-05-14T21:24:57.114Z,32.29
2023-05-14T21:27:25.411Z,32.03
2023-05-14T21:29:53.663Z,32.12
2023-05-14T21:32:22.904Z,32.16
2023-05-14T21:34:51.205Z,31.86
2023-05-14T21:37:19.542Z,31.42
2023-05-14T21:39:48.073Z,31.52
2023-05-14T21:42:17.070Z,30.98
2023-05-14T21:44:45.344Z,30.60
2023-05-14T21:47:13.693Z,30.60
2023-05-14T21:49:42.506Z,30.70
2023-05-14T21:52:10.808Z,30.22
2023-05-14T21:54:39.019Z,30.57
2023-05-14T21:57:07.373Z,30.66
2023-05-14T21:59:36.240Z,30.68
2023-05-14T22:02:07.392Z,30.37
2023-05-14T22:04:36.274Z,30.26
2023-05-14T22:07:04.647Z,30.09
2023-05-14T22:09:32.907Z,29.84
2023-05-14T22:12:01.281Z,29.92
2023-05-14T22:14:29.623Z,29.90
2023-05-14T22:16:58.109Z,30.14
2023-05-14T22:19:27.585Z,29.61
2023-05-14T22:21:55.820Z,29.94
2023-05-14T22:24:24.132Z,29.56
2023-05-14T22:26:52.392Z,29.39
2023-05-14T22:29:20.595Z,29.08
2023-05-14T22:31:49.305Z,29.41
2023-05-14T22:34:17.556Z,29.66
2023-05-14T22:36:45.782Z,29.60
2023-05-14T22:39:14.010Z,29.43
2023-05-14T22:41:42.213Z,29.64
2023-05-14T22:44:10.415Z,29.66
2023-05-14T22:46:38.721Z,29.53
2023-05-14T22:49:07.256Z,29.46
2023-05-14T22:51:35.421Z,29.65
2023-05-14T22:54:03.714Z,29.54
2023-05-14T22:56:31.948Z,29.39
2023-05-14T22:59:03.959Z,29.58
2023-05-14T23:01:33.194Z,29.88
2023-05-14T23:04:01.557Z,29.90
2023-05-14T23:06:31.455Z,29.89
2023-05-14T23:08:59.856Z,30.07
2023-05-14T23:11:28.338Z,30.01
2023-05-14T23:13:56.625Z,30.40
2023-05-14T23:16:25.130Z,30.85
2023-05-14T23:18:53.718Z,30.77
2023-05-14T23:21:21.983Z,30.89
2023-05-14T23:23:50.510Z,30.73
2023-05-14T23:26:18.792Z,31.86
2023-05-14T23:28:48.340Z,31.09
2023-05-14T23:31:18.567Z,31.04
2023-05-14T23:33:47.663Z,31.75
2023-05-14T23:36:16.328Z,32.89
2023-05-14T23:38:44.629Z,33.87
2023-05-14T23:41:12.838Z,34.48
2023-05-14T23:43:41.005Z,35.06
2023-05-14T23:46:09.659Z,35.15
2023-05-14T23:48:38.052Z,34.28
2023-05-14T23:51:06.277Z,34.95
2023-05-14T23:53:35.147Z,35.34
2023-05-14T23:56:03.363Z,36.21
2023-05-14T23:58:31.611Z,36.64
